sensor_id;sensor_type;location;lat;lon;timestamp;P1;durP1;ratioP1;P2;durP2;ratioP2
50880;SDS011;36858;47.832;-3.800;2022-09-09T00:07:21;13.37;;;2.00;;
50880;SDS011;36858;47.832;-3.800;2022-09-09T00:12:43;12.73;;;2.13;;
50880;SDS011;36858;47.832;-3.800;2022-09-09T00:15:39;8.43;;;2.03;;
50880;SDS011;36858;47.832;-3.800;2022-09-09T00:23:35;11.70;;;2.53;;
50880;SDS011;36858;47.832;-3.800;2022-09-09T00:31:30;8.63;;;2.00;;
50880;SDS011;36858;47.832;-3.800;2022-09-09T00:33:58;10.27;;;2.27;;
50880;SDS011;36858;47.832;-3.800;2022-09-09T00:36:30;6.60;;;2.03;;
50880;SDS011;36858;47.832;-3.800;2022-09-09T00:39:02;4.63;;;1.90;;
50880;SDS011;36858;47.832;-3.800;2022-09-09T00:46:48;12.67;;;3.00;;
50880;SDS011;36858;47.832;-3.800;2022-09-09T00:49:43;10.27;;;2.20;;
50880;SDS011;36858;47.832;-3.800;2022-09-09T00:52:30;6.67;;;2.13;;
50880;SDS011;36858;47.832;-3.800;2022-09-09T00:55:48;7.90;;;2.10;;
50880;SDS011;36858;47.832;-3.800;2022-09-09T00:57:54;13.27;;;2.40;;
50880;SDS011;36858;47.832;-3.800;2022-09-09T01:00:29;11.10;;;2.17;;
50880;SDS011;36858;47.832;-3.800;2022-09-09T01:05:45;12.57;;;2.30;;
50880;SDS011;36858;47.832;-3.800;2022-09-09T01:11:05;12.80;;;2.80;;
50880;SDS011;36858;47.832;-3.800;2022-09-09T01:13:36;12.37;;;2.33;;
50880;SDS011;36858;47.832;-3.800;2022-09-09T01:16:03;11.40;;;2.27;;
50880;SDS011;36858;47.832;-3.800;2022-09-09T01:18:43;10.30;;;2.03;;
50880;SDS011;36858;47.832;-3.800;2022-09-09T01:23:56;9.07;;;1.83;;
50880;SDS011;36858;47.832;-3.800;2022-09-09T01:26:35;9.00;;;2.23;;
50880;SDS011;36858;47.832;-3.800;2022-09-09T01:29:06;12.30;;;2.30;;
50880;SDS011;36858;47.832;-3.800;2022-09-09T01:31:40;10.93;;;2.13;;
50880;SDS011;36858;47.832;-3.800;2022-09-09T01:34:11;9.40;;;1.90;;
50880;SDS011;36858;47.832;-3.800;2022-09-09T01:36:47;9.87;;;2.27;;
50880;SDS011;36858;47.832;-3.800;2022-09-09T01:39:16;9.63;;;1.60;;
50880;SDS011;36858;47.832;-3.800;2022-09-09T01:41:43;9.37;;;2.17;;
50880;SDS011;36858;47.832;-3.800;2022-09-09T01:44:10;12.07;;;2.40;;
50880;SDS011;36858;47.832;-3.800;2022-09-09T01:46:37;12.10;;;2.23;;
50880;SDS011;36858;47.832;-3.800;2022-09-09T02:01:27;8.13;;;2.17;;
50880;SDS011;36858;47.832;-3.800;2022-09-09T02:03:52;10.37;;;2.30;;
50880;SDS011;36858;47.832;-3.800;2022-09-09T02:06:37;11.93;;;2.57;;
50880;SDS011;36858;47.832;-3.800;2022-09-09T02:09:05;7.43;;;2.13;;
50880;SDS011;36858;47.832;-3.800;2022-09-09T02:11:33;8.10;;;2.10;;
50880;SDS011;36858;47.832;-3.800;2022-09-09T02:14:02;10.53;;;2.93;;
50880;SDS011;36858;47.832;-3.800;2022-09-09T02:19:03;10.23;;;2.13;;
50880;SDS011;36858;47.832;-3.800;2022-09-09T02:21:34;10.47;;;2.20;;
50880;SDS011;36858;47.832;-3.800;2022-09-09T02:24:06;7.87;;;2.20;;
50880;SDS011;36858;47.832;-3.800;2022-09-09T02:26:37;13.03;;;2.20;;
50880;SDS011;36858;47.832;-3.800;2022-09-09T02:29:11;7.83;;;1.93;;
50880;SDS011;36858;47.832;-3.800;2022-09-09T02:31:44;8.40;;;2.07;;
50880;SDS011;36858;47.832;-3.800;2022-09-09T02:34:12;6.97;;;1.77;;
50880;SDS011;36858;47.832;-3.800;2022-09-09T02:36:40;9.90;;;2.20;;
50880;SDS011;36858;47.832;-3.800;2022-09-09T02:39:08;11.43;;;1.90;;
50880;SDS011;36858;47.832;-3.800;2022-09-09T02:41:45;11.43;;;2.87;;
50880;SDS011;36858;47.832;-3.800;2022-09-09T02:44:18;12.40;;;2.40;;
50880;SDS011;36858;47.832;-3.800;2022-09-09T02:50:08;8.93;;;2.40;;
50880;SDS011;36858;47.832;-3.800;2022-09-09T02:52:52;10.97;;;2.40;;
50880;SDS011;36858;47.832;-3.800;2022-09-09T02:55:48;7.67;;;2.10;;
50880;SDS011;36858;47.832;-3.800;2022-09-09T02:58:16;6.07;;;1.70;;
50880;SDS011;36858;47.832;-3.800;2022-09-09T03:00:45;6.70;;;1.50;;
50880;SDS011;36858;47.832;-3.800;2022-09-09T03:03:13;8.77;;;1.50;;
50880;SDS011;36858;47.832;-3.800;2022-09-09T03:05:42;8.10;;;2.03;;
50880;SDS011;36858;47.832;-3.800;2022-09-09T03:08:10;4.17;;;1.60;;
50880;SDS011;36858;47.832;-3.800;2022-09-09T03:10:37;7.73;;;2.53;;
50880;SDS011;36858;47.832;-3.800;2022-09-09T03:13:04;8.70;;;1.90;;
50880;SDS011;36858;47.832;-3.800;2022-09-09T03:15:33;8.47;;;1.87;;
50880;SDS011;36858;47.832;-3.800;2022-09-09T03:18:00;9.57;;;2.30;;
50880;SDS011;36858;47.832;-3.800;2022-09-09T03:20:28;5.43;;;1.53;;
50880;SDS011;36858;47.832;-3.800;2022-09-09T03:22:56;9.80;;;2.23;;
50880;SDS011;36858;47.832;-3.800;2022-09-09T03:25:23;10.07;;;1.93;;
50880;SDS011;36858;47.832;-3.800;2022-09-09T03:27:51;9.47;;;2.67;;
50880;SDS011;36858;47.832;-3.800;2022-09-09T03:30:24;4.87;;;1.63;;
50880;SDS011;36858;47.832;-3.800;2022-09-09T03:32:52;10.97;;;2.53;;
50880;SDS011;36858;47.832;-3.800;2022-09-09T03:35:19;12.07;;;2.33;;
50880;SDS011;36858;47.832;-3.800;2022-09-09T03:37:46;8.07;;;1.77;;
50880;SDS011;36858;47.832;-3.800;2022-09-09T03:40:13;5.03;;;1.93;;
50880;SDS011;36858;47.832;-3.800;2022-09-09T03:42:40;7.00;;;1.93;;
50880;SDS011;36858;47.832;-3.800;2022-09-09T03:45:08;7.97;;;2.97;;
50880;SDS011;36858;47.832;-3.800;2022-09-09T03:47:36;4.67;;;2.00;;
50880;SDS011;36858;47.832;-3.800;2022-09-09T03:50:04;9.03;;;2.00;;
50880;SDS011;36858;47.832;-3.800;2022-09-09T03:52:38;8.20;;;1.83;;
50880;SDS011;36858;47.832;-3.800;2022-09-09T03:55:05;9.80;;;2.00;;
50880;SDS011;36858;47.832;-3.800;2022-09-09T03:57:33;5.57;;;1.63;;
50880;SDS011;36858;47.832;-3.800;2022-09-09T04:00:05;7.33;;;2.00;;
50880;SDS011;36858;47.832;-3.800;2022-09-09T04:02:33;7.50;;;2.10;;
50880;SDS011;36858;47.832;-3.800;2022-09-09T04:05:00;7.73;;;2.03;;
50880;SDS011;36858;47.832;-3.800;2022-09-09T04:07:27;10.73;;;2.13;;
50880;SDS011;36858;47.832;-3.800;2022-09-09T04:09:54;9.20;;;2.20;;
50880;SDS011;36858;47.832;-3.800;2022-09-09T04:12:21;8.30;;;1.63;;
50880;SDS011;36858;47.832;-3.800;2022-09-09T04:14:48;7.07;;;1.83;;
50880;SDS011;36858;47.832;-3.800;2022-09-09T04:17:15;10.80;;;2.47;;
50880;SDS011;36858;47.832;-3.800;2022-09-09T04:19:43;5.27;;;1.60;;
50880;SDS011;36858;47.832;-3.800;2022-09-09T04:22:10;8.87;;;1.97;;
50880;SDS011;36858;47.832;-3.800;2022-09-09T04:24:37;9.73;;;2.00;;
50880;SDS011;36858;47.832;-3.800;2022-09-09T04:27:04;11.50;;;2.30;;
50880;SDS011;36858;47.832;-3.800;2022-09-09T04:29:31;9.40;;;2.47;;
50880;SDS011;36858;47.832;-3.800;2022-09-09T04:31:58;8.30;;;2.17;;
50880;SDS011;36858;47.832;-3.800;2022-09-09T04:34:25;9.73;;;2.47;;
50880;SDS011;36858;47.832;-3.800;2022-09-09T04:36:52;13.50;;;2.20;;
50880;SDS011;36858;47.832;-3.800;2022-09-09T04:39:19;8.10;;;2.10;;
50880;SDS011;36858;47.832;-3.800;2022-09-09T04:41:46;9.50;;;2.57;;
50880;SDS011;36858;47.832;-3.800;2022-09-09T04:44:13;12.07;;;2.40;;
50880;SDS011;36858;47.832;-3.800;2022-09-09T04:46:40;10.83;;;3.33;;
50880;SDS011;36858;47.832;-3.800;2022-09-09T04:49:07;9.73;;;2.30;;
50880;SDS011;36858;47.832;-3.800;2022-09-09T04:51:40;9.80;;;2.90;;
50880;SDS011;36858;47.832;-3.800;2022-09-09T04:54:07;9.13;;;2.90;;
50880;SDS011;36858;47.832;-3.800;2022-09-09T04:56:34;5.67;;;1.90;;
50880;SDS011;36858;47.832;-3.800;2022-09-09T04:59:00;8.07;;;1.80;;
50880;SDS011;36858;47.832;-3.800;2022-09-09T05:01:29;9.67;;;2.07;;
50880;SDS011;36858;47.832;-3.800;2022-09-09T05:03:56;8.97;;;2.03;;
50880;SDS011;36858;47.832;-3.800;2022-09-09T05:06:23;8.13;;;1.63;;
50880;SDS011;36858;47.832;-3.800;2022-09-09T05:08:50;12.67;;;2.53;;
50880;SDS011;36858;47.832;-3.800;2022-09-09T05:13:52;10.37;;;1.67;;
50880;SDS011;36858;47.832;-3.800;2022-09-09T05:16:19;10.13;;;2.00;;
50880;SDS011;36858;47.832;-3.800;2022-09-09T05:18:47;6.40;;;1.90;;
50880;SDS011;36858;47.832;-3.800;2022-09-09T05:21:15;11.47;;;2.63;;
50880;SDS011;36858;47.832;-3.800;2022-09-09T05:23:43;7.10;;;1.83;;
50880;SDS011;36858;47.832;-3.800;2022-09-09T05:26:13;7.57;;;2.00;;
50880;SDS011;36858;47.832;-3.800;2022-09-09T05:28:46;8.10;;;2.10;;
50880;SDS011;36858;47.832;-3.800;2022-09-09T05:31:14;8.73;;;1.87;;
50880;SDS011;36858;47.832;-3.800;2022-09-09T05:33:43;11.33;;;2.37;;
50880;SDS011;36858;47.832;-3.800;2022-09-09T05:36:18;11.30;;;2.77;;
50880;SDS011;36858;47.832;-3.800;2022-09-09T05:38:46;13.20;;;2.07;;
50880;SDS011;36858;47.832;-3.800;2022-09-09T05:41:14;9.07;;;2.73;;
50880;SDS011;36858;47.832;-3.800;2022-09-09T05:43:44;5.73;;;2.00;;
50880;SDS011;36858;47.832;-3.800;2022-09-09T05:46:13;7.13;;;1.90;;
50880;SDS011;36858;47.832;-3.800;2022-09-09T05:48:42;14.40;;;2.33;;
50880;SDS011;36858;47.832;-3.800;2022-09-09T05:51:13;9.80;;;1.90;;
50880;SDS011;36858;47.832;-3.800;2022-09-09T05:53:45;4.93;;;1.70;;
50880;SDS011;36858;47.832;-3.800;2022-09-09T05:56:22;10.37;;;2.37;;
50880;SDS011;36858;47.832;-3.800;2022-09-09T05:58:51;6.40;;;1.83;;
50880;SDS011;36858;47.832;-3.800;2022-09-09T06:01:24;7.27;;;1.70;;
50880;SDS011;36858;47.832;-3.800;2022-09-09T06:03:52;11.77;;;2.37;;
50880;SDS011;36858;47.832;-3.800;2022-09-09T06:06:20;10.47;;;2.77;;
50880;SDS011;36858;47.832;-3.800;2022-09-09T06:08:50;10.77;;;2.00;;
50880;SDS011;36858;47.832;-3.800;2022-09-09T06:11:27;8.60;;;1.70;;
50880;SDS011;36858;47.832;-3.800;2022-09-09T06:13:58;9.30;;;2.80;;
50880;SDS011;36858;47.832;-3.800;2022-09-09T06:16:26;10.27;;;2.13;;
50880;SDS011;36858;47.832;-3.800;2022-09-09T06:18:54;8.60;;;1.90;;
50880;SDS011;36858;47.832;-3.800;2022-09-09T06:21:23;6.47;;;2.13;;
50880;SDS011;36858;47.832;-3.800;2022-09-09T06:23:56;7.13;;;1.97;;
50880;SDS011;36858;47.832;-3.800;2022-09-09T06:26:32;9.23;;;2.57;;
50880;SDS011;36858;47.832;-3.800;2022-09-09T06:29:01;10.50;;;2.10;;
50880;SDS011;36858;47.832;-3.800;2022-09-09T06:31:31;8.10;;;1.70;;
50880;SDS011;36858;47.832;-3.800;2022-09-09T06:34:00;12.00;;;2.17;;
50880;SDS011;36858;47.832;-3.800;2022-09-09T06:36:29;8.50;;;2.13;;
50880;SDS011;36858;47.832;-3.800;2022-09-09T06:38:59;6.13;;;1.93;;
50880;SDS011;36858;47.832;-3.800;2022-09-09T06:41:27;7.10;;;1.90;;
50880;SDS011;36858;47.832;-3.800;2022-09-09T06:43:55;8.27;;;1.80;;
50880;SDS011;36858;47.832;-3.800;2022-09-09T06:46:23;7.27;;;1.90;;
50880;SDS011;36858;47.832;-3.800;2022-09-09T06:48:54;12.07;;;2.20;;
50880;SDS011;36858;47.832;-3.800;2022-09-09T06:51:24;8.77;;;2.60;;
50880;SDS011;36858;47.832;-3.800;2022-09-09T06:53:53;8.53;;;2.20;;
50880;SDS011;36858;47.832;-3.800;2022-09-09T06:56:22;9.13;;;2.43;;
50880;SDS011;36858;47.832;-3.800;2022-09-09T06:58:51;9.60;;;2.00;;
50880;SDS011;36858;47.832;-3.800;2022-09-09T07:01:19;11.07;;;2.50;;
50880;SDS011;36858;47.832;-3.800;2022-09-09T07:03:48;8.00;;;1.77;;
50880;SDS011;36858;47.832;-3.800;2022-09-09T07:06:20;15.53;;;3.53;;
50880;SDS011;36858;47.832;-3.800;2022-09-09T07:08:50;12.53;;;2.70;;
50880;SDS011;36858;47.832;-3.800;2022-09-09T07:11:22;14.67;;;2.57;;
50880;SDS011;36858;47.832;-3.800;2022-09-09T07:13:52;20.10;;;3.80;;
50880;SDS011;36858;47.832;-3.800;2022-09-09T07:16:20;12.07;;;3.00;;
50880;SDS011;36858;47.832;-3.800;2022-09-09T07:18:50;12.03;;;3.13;;
50880;SDS011;36858;47.832;-3.800;2022-09-09T07:21:18;12.43;;;2.77;;
50880;SDS011;36858;47.832;-3.800;2022-09-09T07:23:47;11.77;;;3.50;;
50880;SDS011;36858;47.832;-3.800;2022-09-09T07:26:17;10.90;;;2.87;;
50880;SDS011;36858;47.832;-3.800;2022-09-09T07:28:48;10.93;;;2.87;;
50880;SDS011;36858;47.832;-3.800;2022-09-09T07:31:16;11.40;;;3.03;;
50880;SDS011;36858;47.832;-3.800;2022-09-09T07:33:47;13.20;;;3.20;;
50880;SDS011;36858;47.832;-3.800;2022-09-09T07:36:15;13.03;;;3.23;;
50880;SDS011;36858;47.832;-3.800;2022-09-09T07:38:53;14.03;;;3.37;;
50880;SDS011;36858;47.832;-3.800;2022-09-09T07:41:28;9.90;;;2.00;;
50880;SDS011;36858;47.832;-3.800;2022-09-09T07:44:10;9.33;;;2.40;;
50880;SDS011;36858;47.832;-3.800;2022-09-09T07:46:42;9.13;;;2.37;;
50880;SDS011;36858;47.832;-3.800;2022-09-09T07:49:10;9.17;;;2.33;;
50880;SDS011;36858;47.832;-3.800;2022-09-09T07:51:38;13.17;;;3.10;;
50880;SDS011;36858;47.832;-3.800;2022-09-09T07:54:08;7.07;;;2.37;;
50880;SDS011;36858;47.832;-3.800;2022-09-09T07:56:38;9.40;;;2.77;;
50880;SDS011;36858;47.832;-3.800;2022-09-09T07:59:05;9.67;;;2.87;;
50880;SDS011;36858;47.832;-3.800;2022-09-09T08:01:34;8.63;;;2.43;;
50880;SDS011;36858;47.832;-3.800;2022-09-09T08:04:06;10.43;;;2.50;;
50880;SDS011;36858;47.832;-3.800;2022-09-09T08:06:35;11.90;;;2.80;;
50880;SDS011;36858;47.832;-3.800;2022-09-09T08:09:05;12.63;;;3.20;;
50880;SDS011;36858;47.832;-3.800;2022-09-09T08:11:33;8.23;;;2.70;;
50880;SDS011;36858;47.832;-3.800;2022-09-09T08:14:04;15.33;;;8.23;;
50880;SDS011;36858;47.832;-3.800;2022-09-09T08:16:35;18.13;;;10.27;;
50880;SDS011;36858;47.832;-3.800;2022-09-09T08:19:06;19.23;;;5.23;;
50880;SDS011;36858;47.832;-3.800;2022-09-09T08:21:34;17.00;;;4.00;;
50880;SDS011;36858;47.832;-3.800;2022-09-09T08:24:03;12.57;;;3.27;;
50880;SDS011;36858;47.832;-3.800;2022-09-09T08:26:33;17.47;;;2.50;;
50880;SDS011;36858;47.832;-3.800;2022-09-09T08:29:02;16.33;;;2.37;;
50880;SDS011;36858;47.832;-3.800;2022-09-09T08:31:31;23.23;;;2.33;;
50880;SDS011;36858;47.832;-3.800;2022-09-09T08:33:59;29.57;;;5.27;;
50880;SDS011;36858;47.832;-3.800;2022-09-09T08:36:29;68.27;;;10.97;;
50880;SDS011;36858;47.832;-3.800;2022-09-09T08:38:59;85.90;;;14.27;;
50880;SDS011;36858;47.832;-3.800;2022-09-09T08:52:12;64.20;;;11.93;;
50880;SDS011;36858;47.832;-3.800;2022-09-09T08:57:51;17.57;;;4.27;;
50880;SDS011;36858;47.832;-3.800;2022-09-09T09:00:20;22.40;;;4.63;;
50880;SDS011;36858;47.832;-3.800;2022-09-09T09:05:36;30.57;;;5.87;;
50880;SDS011;36858;47.832;-3.800;2022-09-09T09:08:17;34.40;;;4.10;;
50880;SDS011;36858;47.832;-3.800;2022-09-09T09:10:53;22.00;;;4.83;;
50880;SDS011;36858;47.832;-3.800;2022-09-09T09:16:48;38.83;;;7.77;;
50880;SDS011;36858;47.832;-3.800;2022-09-09T09:19:12;18.93;;;4.43;;
50880;SDS011;36858;47.832;-3.800;2022-09-09T09:26:47;18.27;;;4.00;;
50880;SDS011;36858;47.832;-3.800;2022-09-09T09:29:16;23.00;;;5.33;;
50880;SDS011;36858;47.832;-3.800;2022-09-09T09:31:49;16.47;;;3.80;;
50880;SDS011;36858;47.832;-3.800;2022-09-09T09:34:20;12.30;;;3.13;;
50880;SDS011;36858;47.832;-3.800;2022-09-09T09:36:54;23.37;;;4.83;;
50880;SDS011;36858;47.832;-3.800;2022-09-09T09:39:32;9.63;;;2.97;;
50880;SDS011;36858;47.832;-3.800;2022-09-09T09:42:24;6.97;;;1.77;;
50880;SDS011;36858;47.832;-3.800;2022-09-09T09:44:51;8.87;;;2.00;;
50880;SDS011;36858;47.832;-3.800;2022-09-09T09:47:19;35.30;;;5.30;;
50880;SDS011;36858;47.832;-3.800;2022-09-09T09:49:51;27.50;;;4.37;;
50880;SDS011;36858;47.832;-3.800;2022-09-09T09:52:26;22.27;;;5.23;;
50880;SDS011;36858;47.832;-3.800;2022-09-09T09:54:57;20.20;;;5.10;;
50880;SDS011;36858;47.832;-3.800;2022-09-09T09:57:32;43.43;;;9.10;;
50880;SDS011;36858;47.832;-3.800;2022-09-09T10:00:06;31.13;;;5.00;;
50880;SDS011;36858;47.832;-3.800;2022-09-09T10:02:41;37.90;;;7.87;;
50880;SDS011;36858;47.832;-3.800;2022-09-09T10:05:14;68.97;;;12.10;;
50880;SDS011;36858;47.832;-3.800;2022-09-09T10:10:39;73.37;;;11.30;;
50880;SDS011;36858;47.832;-3.800;2022-09-09T10:19:33;33.93;;;6.13;;
50880;SDS011;36858;47.832;-3.800;2022-09-09T10:24:54;31.40;;;13.13;;
50880;SDS011;36858;47.832;-3.800;2022-09-09T10:27:28;15.10;;;7.87;;
50880;SDS011;36858;47.832;-3.800;2022-09-09T10:30:30;30.67;;;7.40;;
50880;SDS011;36858;47.832;-3.800;2022-09-09T10:52:43;213.50;;;54.50;;
50880;SDS011;36858;47.832;-3.800;2022-09-09T10:55:35;99.93;;;23.37;;
50880;SDS011;36858;47.832;-3.800;2022-09-09T10:58:05;85.77;;;18.90;;
50880;SDS011;36858;47.832;-3.800;2022-09-09T11:00:42;80.10;;;19.10;;
50880;SDS011;36858;47.832;-3.800;2022-09-09T11:03:30;25.80;;;7.27;;
50880;SDS011;36858;47.832;-3.800;2022-09-09T11:06:00;19.40;;;5.00;;
50880;SDS011;36858;47.832;-3.800;2022-09-09T11:08:32;19.63;;;5.30;;
50880;SDS011;36858;47.832;-3.800;2022-09-09T11:11:18;14.30;;;3.20;;
50880;SDS011;36858;47.832;-3.800;2022-09-09T11:21:46;8.23;;;1.80;;
50880;SDS011;36858;47.832;-3.800;2022-09-09T11:27:13;4.47;;;1.40;;
50880;SDS011;36858;47.832;-3.800;2022-09-09T11:37:50;3.73;;;1.67;;
50880;SDS011;36858;47.832;-3.800;2022-09-09T11:40:25;11.37;;;1.60;;
50880;SDS011;36858;47.832;-3.800;2022-09-09T11:43:03;5.93;;;1.40;;
50880;SDS011;36858;47.832;-3.800;2022-09-09T11:45:39;5.67;;;1.10;;
50880;SDS011;36858;47.832;-3.800;2022-09-09T11:51:01;3.67;;;1.03;;
50880;SDS011;36858;47.832;-3.800;2022-09-09T11:53:31;3.37;;;0.90;;
50880;SDS011;36858;47.832;-3.800;2022-09-09T11:56:09;4.87;;;0.93;;
50880;SDS011;36858;47.832;-3.800;2022-09-09T11:58:39;5.60;;;0.97;;
50880;SDS011;36858;47.832;-3.800;2022-09-09T12:01:13;3.00;;;0.70;;
50880;SDS011;36858;47.832;-3.800;2022-09-09T12:07:37;8.90;;;1.77;;
50880;SDS011;36858;47.832;-3.800;2022-09-09T12:09:52;3.27;;;1.13;;
50880;SDS011;36858;47.832;-3.800;2022-09-09T12:12:31;6.00;;;2.00;;
50880;SDS011;36858;47.832;-3.800;2022-09-09T12:17:42;23.10;;;4.07;;
50880;SDS011;36858;47.832;-3.800;2022-09-09T12:20:14;15.73;;;3.40;;
50880;SDS011;36858;47.832;-3.800;2022-09-09T12:31:11;17.57;;;4.90;;
50880;SDS011;36858;47.832;-3.800;2022-09-09T12:34:11;6.80;;;2.13;;
50880;SDS011;36858;47.832;-3.800;2022-09-09T12:36:43;7.13;;;1.93;;
50880;SDS011;36858;47.832;-3.800;2022-09-09T12:42:04;23.90;;;3.97;;
50880;SDS011;36858;47.832;-3.800;2022-09-09T12:44:31;7.67;;;1.60;;
50880;SDS011;36858;47.832;-3.800;2022-09-09T12:47:00;4.73;;;1.53;;
50880;SDS011;36858;47.832;-3.800;2022-09-09T12:49:29;7.97;;;1.90;;
50880;SDS011;36858;47.832;-3.800;2022-09-09T12:52:01;7.40;;;2.03;;
50880;SDS011;36858;47.832;-3.800;2022-09-09T12:54:48;8.13;;;1.20;;
50880;SDS011;36858;47.832;-3.800;2022-09-09T12:57:18;5.80;;;2.13;;
50880;SDS011;36858;47.832;-3.800;2022-09-09T12:59:45;4.37;;;1.53;;
50880;SDS011;36858;47.832;-3.800;2022-09-09T13:02:19;12.27;;;2.20;;
50880;SDS011;36858;47.832;-3.800;2022-09-09T13:04:50;6.00;;;1.90;;
50880;SDS011;36858;47.832;-3.800;2022-09-09T13:07:18;11.43;;;2.73;;
50880;SDS011;36858;47.832;-3.800;2022-09-09T13:09:46;11.87;;;2.53;;
50880;SDS011;36858;47.832;-3.800;2022-09-09T13:12:17;10.00;;;3.60;;
50880;SDS011;36858;47.832;-3.800;2022-09-09T13:14:48;13.17;;;3.00;;
50880;SDS011;36858;47.832;-3.800;2022-09-09T13:17:19;10.73;;;3.00;;
50880;SDS011;36858;47.832;-3.800;2022-09-09T13:19:51;7.10;;;2.37;;
50880;SDS011;36858;47.832;-3.800;2022-09-09T13:22:33;7.13;;;1.83;;
50880;SDS011;36858;47.832;-3.800;2022-09-09T13:25:04;12.27;;;2.70;;
50880;SDS011;36858;47.832;-3.800;2022-09-09T13:27:35;6.43;;;1.57;;
50880;SDS011;36858;47.832;-3.800;2022-09-09T13:30:23;5.93;;;1.90;;
50880;SDS011;36858;47.832;-3.800;2022-09-09T13:35:36;5.90;;;2.13;;
50880;SDS011;36858;47.832;-3.800;2022-09-09T13:38:15;8.83;;;2.77;;
50880;SDS011;36858;47.832;-3.800;2022-09-09T13:40:59;8.87;;;2.80;;
50880;SDS011;36858;47.832;-3.800;2022-09-09T13:43:31;8.40;;;2.77;;
50880;SDS011;36858;47.832;-3.800;2022-09-09T13:46:19;6.83;;;1.57;;
50880;SDS011;36858;47.832;-3.800;2022-09-09T13:48:56;4.67;;;1.60;;
50880;SDS011;36858;47.832;-3.800;2022-09-09T13:51:28;9.77;;;2.70;;
50880;SDS011;36858;47.832;-3.800;2022-09-09T13:54:01;8.07;;;2.03;;
50880;SDS011;36858;47.832;-3.800;2022-09-09T13:56:28;5.80;;;1.87;;
50880;SDS011;36858;47.832;-3.800;2022-09-09T13:58:55;7.30;;;2.73;;
50880;SDS011;36858;47.832;-3.800;2022-09-09T14:01:23;6.10;;;2.70;;
50880;SDS011;36858;47.832;-3.800;2022-09-09T14:03:54;8.33;;;2.20;;
50880;SDS011;36858;47.832;-3.800;2022-09-09T14:06:21;9.33;;;2.37;;
50880;SDS011;36858;47.832;-3.800;2022-09-09T14:08:49;10.17;;;3.17;;
50880;SDS011;36858;47.832;-3.800;2022-09-09T14:11:16;9.50;;;3.30;;
50880;SDS011;36858;47.832;-3.800;2022-09-09T14:13:44;8.33;;;2.60;;
50880;SDS011;36858;47.832;-3.800;2022-09-09T14:16:11;6.93;;;3.40;;
50880;SDS011;36858;47.832;-3.800;2022-09-09T14:18:38;6.70;;;2.30;;
50880;SDS011;36858;47.832;-3.800;2022-09-09T14:21:05;3.60;;;1.80;;
50880;SDS011;36858;47.832;-3.800;2022-09-09T14:23:32;1.83;;;1.00;;
50880;SDS011;36858;47.832;-3.800;2022-09-09T14:25:59;2.97;;;1.03;;
50880;SDS011;36858;47.832;-3.800;2022-09-09T14:28:26;2.20;;;0.70;;
50880;SDS011;36858;47.832;-3.800;2022-09-09T14:31:14;3.10;;;0.60;;
50880;SDS011;36858;47.832;-3.800;2022-09-09T14:33:43;5.10;;;0.80;;
50880;SDS011;36858;47.832;-3.800;2022-09-09T14:36:10;2.23;;;0.87;;
50880;SDS011;36858;47.832;-3.800;2022-09-09T14:38:38;2.20;;;0.83;;
50880;SDS011;36858;47.832;-3.800;2022-09-09T14:41:09;1.40;;;0.70;;
50880;SDS011;36858;47.832;-3.800;2022-09-09T14:43:37;7.13;;;0.83;;
50880;SDS011;36858;47.832;-3.800;2022-09-09T14:46:08;2.67;;;1.10;;
50880;SDS011;36858;47.832;-3.800;2022-09-09T14:48:37;13.70;;;2.00;;
50880;SDS011;36858;47.832;-3.800;2022-09-09T14:51:08;4.97;;;1.60;;
50880;SDS011;36858;47.832;-3.800;2022-09-09T14:53:39;8.17;;;3.83;;
50880;SDS011;36858;47.832;-3.800;2022-09-09T14:56:11;6.73;;;3.70;;
50880;SDS011;36858;47.832;-3.800;2022-09-09T14:58:39;5.07;;;2.30;;
50880;SDS011;36858;47.832;-3.800;2022-09-09T15:01:08;6.70;;;2.30;;
50880;SDS011;36858;47.832;-3.800;2022-09-09T15:03:39;7.73;;;1.63;;
50880;SDS011;36858;47.832;-3.800;2022-09-09T15:08:35;7.40;;;3.10;;
50880;SDS011;36858;47.832;-3.800;2022-09-09T15:11:08;8.23;;;3.40;;
50880;SDS011;36858;47.832;-3.800;2022-09-09T15:13:37;6.93;;;3.80;;
50880;SDS011;36858;47.832;-3.800;2022-09-09T15:16:12;12.80;;;6.53;;
50880;SDS011;36858;47.832;-3.800;2022-09-09T15:18:40;11.03;;;4.23;;
50880;SDS011;36858;47.832;-3.800;2022-09-09T15:21:11;11.73;;;4.03;;
50880;SDS011;36858;47.832;-3.800;2022-09-09T15:23:39;101.00;;;67.63;;
50880;SDS011;36858;47.832;-3.800;2022-09-09T15:26:06;27.00;;;16.60;;
50880;SDS011;36858;47.832;-3.800;2022-09-09T15:28:34;11.47;;;3.97;;
50880;SDS011;36858;47.832;-3.800;2022-09-09T15:31:08;6.10;;;2.60;;
50880;SDS011;36858;47.832;-3.800;2022-09-09T15:33:49;3.77;;;1.60;;
50880;SDS011;36858;47.832;-3.800;2022-09-09T15:36:18;2.67;;;1.00;;
50880;SDS011;36858;47.832;-3.800;2022-09-09T15:38:46;7.90;;;1.93;;
50880;SDS011;36858;47.832;-3.800;2022-09-09T15:41:13;6.57;;;3.50;;
50880;SDS011;36858;47.832;-3.800;2022-09-09T15:43:44;9.20;;;5.30;;
50880;SDS011;36858;47.832;-3.800;2022-09-09T15:48:43;5.83;;;2.90;;
50880;SDS011;36858;47.832;-3.800;2022-09-09T15:51:14;3.10;;;2.73;;
50880;SDS011;36858;47.832;-3.800;2022-09-09T15:54:01;4.23;;;2.40;;
50880;SDS011;36858;47.832;-3.800;2022-09-09T15:56:28;3.50;;;1.57;;
50880;SDS011;36858;47.832;-3.800;2022-09-09T15:58:59;8.27;;;1.70;;
50880;SDS011;36858;47.832;-3.800;2022-09-09T16:01:26;7.93;;;2.90;;
50880;SDS011;36858;47.832;-3.800;2022-09-09T16:03:53;11.73;;;4.97;;
50880;SDS011;36858;47.832;-3.800;2022-09-09T16:06:21;3.90;;;2.13;;
50880;SDS011;36858;47.832;-3.800;2022-09-09T16:08:50;5.83;;;1.93;;
50880;SDS011;36858;47.832;-3.800;2022-09-09T16:11:19;6.53;;;2.90;;
50880;SDS011;36858;47.832;-3.800;2022-09-09T16:13:48;8.60;;;3.13;;
50880;SDS011;36858;47.832;-3.800;2022-09-09T16:16:18;7.33;;;3.70;;
50880;SDS011;36858;47.832;-3.800;2022-09-09T16:18:49;6.23;;;3.23;;
50880;SDS011;36858;47.832;-3.800;2022-09-09T16:21:19;8.60;;;2.73;;
50880;SDS011;36858;47.832;-3.800;2022-09-09T16:23:48;11.43;;;2.20;;
50880;SDS011;36858;47.832;-3.800;2022-09-09T16:26:17;4.60;;;2.77;;
50880;SDS011;36858;47.832;-3.800;2022-09-09T16:28:44;10.77;;;2.80;;
50880;SDS011;36858;47.832;-3.800;2022-09-09T16:31:13;12.77;;;2.30;;
50880;SDS011;36858;47.832;-3.800;2022-09-09T16:33:43;10.30;;;2.70;;
50880;SDS011;36858;47.832;-3.800;2022-09-09T16:36:15;6.03;;;1.80;;
50880;SDS011;36858;47.832;-3.800;2022-09-09T16:38:43;10.10;;;1.80;;
50880;SDS011;36858;47.832;-3.800;2022-09-09T16:41:10;9.27;;;2.43;;
50880;SDS011;36858;47.832;-3.800;2022-09-09T16:43:38;9.07;;;1.80;;
50880;SDS011;36858;47.832;-3.800;2022-09-09T16:46:13;8.90;;;1.30;;
50880;SDS011;36858;47.832;-3.800;2022-09-09T16:48:45;9.67;;;1.80;;
50880;SDS011;36858;47.832;-3.800;2022-09-09T16:51:16;6.37;;;1.43;;
50880;SDS011;36858;47.832;-3.800;2022-09-09T16:53:49;10.87;;;1.77;;
50880;SDS011;36858;47.832;-3.800;2022-09-09T16:56:20;6.17;;;1.33;;
50880;SDS011;36858;47.832;-3.800;2022-09-09T16:58:50;9.27;;;1.40;;
50880;SDS011;36858;47.832;-3.800;2022-09-09T17:01:18;6.77;;;1.60;;
50880;SDS011;36858;47.832;-3.800;2022-09-09T17:03:45;7.23;;;1.37;;
50880;SDS011;36858;47.832;-3.800;2022-09-09T17:06:12;10.03;;;1.80;;
50880;SDS011;36858;47.832;-3.800;2022-09-09T17:08:41;4.80;;;1.00;;
50880;SDS011;36858;47.832;-3.800;2022-09-09T17:11:15;6.83;;;1.83;;
50880;SDS011;36858;47.832;-3.800;2022-09-09T17:13:45;6.73;;;1.47;;
50880;SDS011;36858;47.832;-3.800;2022-09-09T17:16:14;4.50;;;1.03;;
50880;SDS011;36858;47.832;-3.800;2022-09-09T17:18:43;4.83;;;1.20;;
50880;SDS011;36858;47.832;-3.800;2022-09-09T17:21:13;9.03;;;2.37;;
50880;SDS011;36858;47.832;-3.800;2022-09-09T17:23:41;6.43;;;1.30;;
50880;SDS011;36858;47.832;-3.800;2022-09-09T17:26:09;8.30;;;1.70;;
50880;SDS011;36858;47.832;-3.800;2022-09-09T17:28:38;8.07;;;2.27;;